createdAt,value
2019-03-24T00:04:03.627Z,133.75
2019-03-24T00:09:08.244Z,136.18
2019-03-24T00:14:12.174Z,129.85
2019-03-24T00:19:15.920Z,131.87
2019-03-24T00:24:19.790Z,139.77
2019-03-24T00:29:23.779Z,141.73
2019-03-24T00:34:27.660Z,130.27
2019-03-24T00:39:31.622Z,123.40
2019-03-24T00:44:35.819Z,136.45
2019-03-24T00:49:39.877Z,132.97
2019-03-24T00:54:43.734Z,127.75
2019-03-24T00:59:47.602Z,136.72
2019-03-24T01:04:51.627Z,137.30
2019-03-24T01:09:56.689Z,126.55
2019-03-24T01:15:00.516Z,145.22
2019-03-24T01:20:05.300Z,129.25
2019-03-24T01:25:09.286Z,135.93
2019-03-24T01:30:13.421Z,128.57
2019-03-24T01:35:17.295Z,130.05
2019-03-24T01:40:21.111Z,126.10
2019-03-24T01:45:24.986Z,133.10
2019-03-24T01:50:28.936Z,124.75
2019-03-24T01:55:32.828Z,123.80
2019-03-24T02:00:36.809Z,118.82
2019-03-24T02:05:40.626Z,127.32
2019-03-24T02:10:44.553Z,128.62
2019-03-24T02:15:48.631Z,131.63
2019-03-24T02:20:52.466Z,117.95
2019-03-24T02:25:56.343Z,121.13
2019-03-24T02:31:00.183Z,116.65
2019-03-24T02:36:04.078Z,115.40
2019-03-24T02:41:07.826Z,110.25
2019-03-24T02:46:23.651Z,99.28
2019-03-24T02:51:17.303Z,79.53
2019-03-24T02:56:21.146Z,77.75
2019-03-24T03:01:24.990Z,82.75
2019-03-24T03:06:28.853Z,66.70
2019-03-24T03:11:32.608Z,64.77
2019-03-24T03:16:38.670Z,57.15
2019-03-24T03:21:42.341Z,59.73
2019-03-24T03:26:46.302Z,58.55
2019-03-24T03:31:50.198Z,61.42
2019-03-24T03:36:54.012Z,62.73
2019-03-24T03:41:57.880Z,65.30
2019-03-24T03:47:01.717Z,53.40
2019-03-24T03:52:05.634Z,56.90
2019-03-24T03:57:09.448Z,54.30
2019-03-24T04:02:13.271Z,50.55
2019-03-24T04:07:17.145Z,51.85
2019-03-24T04:12:20.980Z,42.90
2019-03-24T04:17:24.838Z,47.85
2019-03-24T04:22:28.687Z,41.55
2019-03-24T04:27:32.445Z,42.45
2019-03-24T04:32:36.236Z,39.67
2019-03-24T04:37:40.059Z,45.63
2019-03-24T04:42:43.811Z,40.57
2019-03-24T04:47:47.609Z,35.00
2019-03-24T04:52:51.460Z,40.85
2019-03-24T04:57:55.262Z,32.17
2019-03-24T05:02:59.130Z,37.03
2019-03-24T05:08:03.573Z,36.27
2019-03-24T05:13:07.328Z,33.18
2019-03-24T05:18:12.040Z,32.50
2019-03-24T05:23:16.224Z,37.33
2019-03-24T05:28:20.056Z,33.02
2019-03-24T05:33:23.828Z,34.85
2019-03-24T05:38:27.688Z,27.50
2019-03-24T05:43:31.465Z,30.75
2019-03-24T05:48:35.245Z,28.73
2019-03-24T05:53:39.409Z,32.25
2019-03-24T05:58:43.136Z,30.85
2019-03-24T06:03:46.891Z,29.50
2019-03-24T06:08:50.647Z,31.27
2019-03-24T06:13:54.419Z,35.13
2019-03-24T06:18:58.642Z,27.02
2019-03-24T06:24:02.594Z,32.13
2019-03-24T06:29:06.371Z,31.65
2019-03-24T06:34:10.165Z,34.50
2019-03-24T06:39:13.931Z,29.27
2019-03-24T06:44:17.705Z,30.40
2019-03-24T06:49:21.600Z,35.75
2019-03-24T06:54:25.400Z,25.50
2019-03-24T06:59:29.181Z,29.52
2019-03-24T07:04:32.919Z,28.90
2019-03-24T07:09:36.675Z,22.45
2019-03-24T07:14:40.496Z,28.50
2019-03-24T07:19:44.219Z,22.73
2019-03-24T07:24:48.468Z,27.15
2019-03-24T07:29:52.238Z,22.87
2019-03-24T07:34:56.830Z,26.55
2019-03-24T07:40:00.616Z,28.05
2019-03-24T07:45:05.862Z,24.15
2019-03-24T07:50:10.263Z,20.45
2019-03-24T07:55:14.021Z,23.18
2019-03-24T08:00:36.161Z,23.00
2019-03-24T08:05:40.069Z,20.25
2019-03-24T08:10:43.805Z,26.73
2019-03-24T08:15:47.657Z,23.38
2019-03-24T08:20:51.481Z,24.87
2019-03-24T08:25:55.284Z,25.12
2019-03-24T08:30:59.074Z,20.85
2019-03-24T08:36:03.327Z,27.07
2019-03-24T08:41:07.545Z,23.98
2019-03-24T08:46:11.636Z,23.55
2019-03-24T08:51:15.387Z,21.30
2019-03-24T08:56:19.293Z,18.65
2019-03-24T09:01:23.076Z,23.38
2019-03-24T09:06:26.854Z,21.10
2019-03-24T09:11:31.635Z,23.45
2019-03-24T09:16:35.657Z,23.47
2019-03-24T09:21:39.400Z,18.87
2019-03-24T09:26:43.253Z,22.67
2019-03-24T09:31:47.007Z,19.85
2019-03-24T09:36:50.900Z,20.85
2019-03-24T09:41:54.653Z,25.00
2019-03-24T09:46:58.584Z,17.82
2019-03-24T09:52:02.477Z,19.87
2019-03-24T09:57:06.314Z,18.30
2019-03-24T10:02:10.107Z,16.90
2019-03-24T10:07:13.865Z,14.58
2019-03-24T10:12:17.718Z,18.37
2019-03-24T10:17:21.480Z,15.88
2019-03-24T10:22:25.284Z,18.92
2019-03-24T10:27:29.062Z,18.92
2019-03-24T10:32:32.865Z,21.25
2019-03-24T10:37:36.912Z,14.07
2019-03-24T10:42:40.958Z,16.65
2019-03-24T10:47:47.178Z,18.52
2019-03-24T10:52:50.960Z,12.90
2019-03-24T10:57:54.724Z,13.85
2019-03-24T11:02:58.467Z,13.77
2019-03-24T11:08:02.268Z,16.00
2019-03-24T11:13:06.313Z,14.90
2019-03-24T11:18:10.086Z,16.10
2019-03-24T11:23:13.897Z,15.63
2019-03-24T11:28:19.283Z,16.90
2019-03-24T11:33:23.325Z,14.70
2019-03-24T11:38:27.180Z,14.07
2019-03-24T11:43:30.904Z,12.45
2019-03-24T11:48:34.829Z,12.13
2019-03-24T11:53:38.788Z,13.22
2019-03-24T11:58:42.654Z,14.55
2019-03-24T12:03:46.537Z,13.70
2019-03-24T12:08:50.306Z,16.12
2019-03-24T12:13:54.415Z,13.48
2019-03-24T12:18:58.330Z,13.15
2019-03-24T12:24:02.172Z,14.05
2019-03-24T12:29:05.966Z,15.23
2019-03-24T12:34:09.812Z,13.10
2019-03-24T12:39:13.636Z,12.23
2019-03-24T12:44:17.507Z,12.15
2019-03-24T12:49:21.615Z,14.75
2019-03-24T12:54:25.704Z,15.88
2019-03-24T12:59:30.062Z,17.37
2019-03-24T13:04:34.134Z,15.20
2019-03-24T13:09:37.995Z,19.70
2019-03-24T13:14:41.977Z,16.15
2019-03-24T13:19:45.842Z,13.53
2019-03-24T13:24:49.804Z,20.25
2019-03-24T13:29:53.658Z,17.60
2019-03-24T13:34:57.474Z,15.48
2019-03-24T13:40:01.296Z,16.07
2019-03-24T13:45:05.218Z,16.52
2019-03-24T13:50:09.417Z,17.35
2019-03-24T13:55:13.449Z,13.45
2019-03-24T14:00:18.026Z,14.03
2019-03-24T14:05:21.857Z,17.35
2019-03-24T14:10:25.645Z,18.42
2019-03-24T14:15:31.678Z,14.23
2019-03-24T14:20:43.313Z,18.23
2019-03-24T14:25:41.341Z,14.33
2019-03-24T14:30:47.495Z,12.50
2019-03-24T14:35:51.584Z,14.53
2019-03-24T14:40:55.457Z,17.80
2019-03-24T14:45:59.339Z,10.05
2019-03-24T14:51:03.233Z,11.85
2019-03-24T14:56:07.160Z,11.73
2019-03-24T15:01:11.040Z,16.35
2019-03-24T15:06:14.879Z,12.68
2019-03-24T15:11:18.880Z,13.55
2019-03-24T15:16:23.106Z,13.93
2019-03-24T15:21:26.995Z,19.12
2019-03-24T15:26:32.942Z,17.35
2019-03-24T15:31:36.778Z,14.60
2019-03-24T15:36:40.660Z,13.48
2019-03-24T15:41:44.506Z,16.93
2019-03-24T15:46:48.718Z,16.23
2019-03-24T15:51:52.559Z,19.67
2019-03-24T15:56:56.583Z,12.43
2019-03-24T16:02:00.412Z,16.90
2019-03-24T16:07:04.428Z,14.50
2019-03-24T16:12:08.397Z,15.32
2019-03-24T16:17:12.309Z,14.83
2019-03-24T16:22:16.270Z,17.50
2019-03-24T16:27:20.300Z,14.87
2019-03-24T16:32:24.661Z,17.00
2019-03-24T16:37:28.539Z,17.20
2019-03-24T16:42:32.431Z,15.73
2019-03-24T16:47:36.315Z,17.80
2019-03-24T16:52:40.224Z,19.23
2019-03-24T16:57:44.421Z,20.03
2019-03-24T17:02:48.565Z,17.52
2019-03-24T17:07:52.526Z,18.90
2019-03-24T17:12:59.908Z,18.57
2019-03-24T17:18:04.262Z,19.57
2019-03-24T17:23:08.189Z,17.52
2019-03-24T17:28:12.135Z,19.80
2019-03-24T17:33:16.160Z,22.25
2019-03-24T17:38:20.203Z,20.15
2019-03-24T17:43:24.146Z,24.25
2019-03-24T17:48:28.056Z,27.67
2019-03-24T17:53:31.937Z,26.97
2019-03-24T17:58:35.950Z,22.35
2019-03-24T18:03:40.056Z,26.70
2019-03-24T18:08:44.015Z,26.65
2019-03-24T18:13:47.858Z,27.93
2019-03-24T18:18:51.897Z,28.55
2019-03-24T18:23:56.114Z,29.67
2019-03-24T18:29:00.118Z,25.90
2019-03-24T18:34:04.213Z,34.40
2019-03-24T18:39:12.616Z,29.65
2019-03-24T18:44:16.688Z,28.60
2019-03-24T18:49:20.636Z,30.27
2019-03-24T18:54:24.475Z,33.78
2019-03-24T18:59:28.326Z,31.55
2019-03-24T19:04:34.406Z,26.33
2019-03-24T19:09:38.449Z,32.25
2019-03-24T19:14:42.315Z,30.77
2019-03-24T19:19:46.322Z,40.95
2019-03-24T19:24:50.244Z,34.78
2019-03-24T19:29:54.110Z,34.80
2019-03-24T19:34:57.904Z,42.13
2019-03-24T19:40:01.827Z,47.98
2019-03-24T19:45:06.319Z,53.17
2019-03-24T19:50:10.334Z,62.05
2019-03-24T19:55:14.513Z,53.10
2019-03-24T20:00:18.468Z,44.65
2019-03-24T20:05:22.445Z,37.88
2019-03-24T20:10:26.286Z,40.20
2019-03-24T20:15:30.170Z,38.17
2019-03-24T20:20:34.178Z,48.45
2019-03-24T20:25:38.048Z,39.13
2019-03-24T20:30:41.906Z,32.28
2019-03-24T20:35:46.039Z,31.27
2019-03-24T20:40:49.952Z,32.78
2019-03-24T20:45:53.931Z,32.67
2019-03-24T20:50:57.808Z,43.60
2019-03-24T20:56:01.773Z,38.45
2019-03-24T21:01:05.685Z,36.73
2019-03-24T21:06:09.620Z,41.33
2019-03-24T21:11:13.621Z,40.98
2019-03-24T21:16:17.626Z,49.55
2019-03-24T21:21:21.431Z,39.73
2019-03-24T21:26:25.398Z,41.73
2019-03-24T21:31:29.203Z,32.25
2019-03-24T21:36:33.015Z,20.05
2019-03-24T21:41:36.976Z,20.77
2019-03-24T21:46:40.932Z,16.37
2019-03-24T21:51:45.239Z,14.00
2019-03-24T21:56:49.131Z,11.25
2019-03-24T22:01:53.129Z,14.78
2019-03-24T22:06:57.855Z,13.48
2019-03-24T22:12:02.187Z,12.23
2019-03-24T22:17:05.951Z,10.55
2019-03-24T22:22:09.727Z,8.53
2019-03-24T22:27:13.516Z,8.15
2019-03-24T22:32:17.279Z,11.55
2019-03-24T22:37:21.166Z,21.07
2019-03-24T22:42:24.943Z,11.90
2019-03-24T22:47:28.967Z,8.53
2019-03-24T22:52:32.893Z,7.12
2019-03-24T22:57:36.659Z,9.98
2019-03-24T23:02:40.566Z,8.28
2019-03-24T23:07:44.349Z,14.60
2019-03-24T23:12:48.514Z,34.17
2019-03-24T23:17:52.323Z,24.27
2019-03-24T23:22:56.111Z,11.40
2019-03-24T23:28:00.345Z,10.48
2019-03-24T23:33:04.628Z,11.33
2019-03-24T23:38:08.411Z,8.35
2019-03-24T23:43:12.240Z,9.10
2019-03-24T23:48:16.277Z,9.80
2019-03-24T23:53:20.130Z,24.85
2019-03-24T23:58:23.856Z,28.45
